aviador You're here:

KHBI Decoded Metar

ASHEBORO MUNI in NC, USA
Report Time2017-04-29 17:30:00
UTC Time2017-04-29 17:44:47
Flight Rules vfr VFR
Wind220° at 10 kt
W.Decomp.*RWY 21: 9.5 kt HW 3.1 kt RCW
W.Rank220° ranks 3
Current wind is above 220° avg. (6.2)
Visibility9999 m
Phenomena:N/A
Clouds:N/A
Expected CloudBase > 2,800 ft AGL from Temp-Dew spread
CeilingNone
Temp28°C (ISA +14)
Dew Point21°C (66% RH)
Heat Index30.2°C
QNH1023 hPa
Density Alt2,316 ft
Elevation673 ft
Report Wrong Elevation
Raw Report
KHBI 291730Z AUTO 22010KT 10SM CLR 28/21 A3020 RMK AO2
T02810208=

Extra information for KHBI:More info

Metar Taf Metar & Taf Last 4 Metars F.Rules Stats Wind Profile Meteogram Temp Stats Airport Information Weather charts Add Link Nearby VenuesMetar ALERT Operation Metar Decoded Social comments

AIRNAV info for KHBI